createdAt,value
2023-03-04T00:01:37.630Z,38.73
2023-03-04T00:04:40.512Z,40.10
2023-03-04T00:07:44.724Z,40.93
2023-03-04T00:10:47.879Z,40.10
2023-03-04T00:13:50.883Z,41.83
2023-03-04T00:16:53.773Z,40.70
2023-03-04T00:19:56.659Z,39.83
2023-03-04T00:23:00.856Z,38.43
2023-03-04T00:26:03.709Z,38.70
2023-03-04T00:29:06.569Z,41.03
2023-03-04T00:32:09.592Z,38.00
2023-03-04T00:35:12.565Z,37.57
2023-03-04T00:38:16.787Z,40.93
2023-03-04T00:41:19.631Z,38.77
2023-03-04T00:44:22.491Z,40.43
2023-03-04T00:47:25.433Z,39.13
2023-03-04T00:50:28.404Z,38.67
2023-03-04T00:53:32.647Z,37.83
2023-03-04T00:56:35.493Z,37.53
2023-03-04T00:59:38.383Z,39.73
2023-03-04T01:02:41.407Z,39.07
2023-03-04T01:05:44.284Z,40.20
2023-03-04T01:08:48.520Z,38.67
2023-03-04T01:11:51.388Z,40.83
2023-03-04T01:14:54.246Z,39.47
2023-03-04T01:17:57.691Z,38.33
2023-03-04T01:21:01.346Z,40.37
2023-03-04T01:24:06.376Z,40.40
2023-03-04T01:27:09.279Z,39.73
2023-03-04T01:30:13.614Z,39.37
2023-03-04T01:33:16.771Z,39.87
2023-03-04T01:36:19.630Z,40.17
2023-03-04T01:39:23.855Z,39.30
2023-03-04T01:42:28.968Z,35.57
2023-03-04T01:45:33.371Z,37.13
2023-03-04T01:48:38.676Z,37.83
2023-03-04T01:51:43.160Z,37.27
2023-03-04T01:54:48.539Z,39.13
2023-03-04T01:57:53.433Z,36.77
2023-03-04T02:00:56.297Z,37.27
2023-03-04T02:03:59.442Z,38.00
2023-03-04T02:07:03.219Z,35.97
2023-03-04T02:10:08.807Z,37.00
2023-03-04T02:13:13.028Z,36.83
2023-03-04T02:16:15.917Z,39.07
2023-03-04T02:19:29.529Z,36.57
2023-03-04T02:22:34.826Z,35.70
2023-03-04T02:25:46.252Z,34.97
2023-03-04T02:28:52.500Z,34.43
2023-03-04T02:31:55.806Z,36.33
2023-03-04T02:34:58.827Z,33.70
2023-03-04T02:38:01.706Z,34.87
2023-03-04T02:41:05.919Z,34.33
2023-03-04T02:44:18.000Z,37.03
2023-03-04T02:47:20.884Z,36.37
2023-03-04T02:50:24.481Z,32.97
2023-03-04T02:53:27.368Z,35.07
2023-03-04T02:56:30.287Z,35.93
2023-03-04T02:59:34.621Z,35.57
2023-03-04T03:02:37.485Z,35.97
2023-03-04T03:05:40.718Z,35.37
2023-03-04T03:08:44.334Z,35.27
2023-03-04T03:11:47.294Z,36.37
2023-03-04T03:14:51.500Z,35.93
2023-03-04T03:17:54.355Z,35.70
2023-03-04T03:20:57.357Z,36.00
2023-03-04T03:24:00.239Z,36.30
2023-03-04T03:27:03.076Z,35.53
2023-03-04T03:30:09.812Z,33.30
2023-03-04T03:33:12.677Z,32.67
2023-03-04T03:36:15.569Z,31.90
2023-03-04T03:39:18.608Z,31.87
2023-03-04T03:42:21.454Z,34.97
2023-03-04T03:45:25.765Z,34.37
2023-03-04T03:48:28.692Z,31.67
2023-03-04T03:51:31.606Z,31.20
2023-03-04T03:54:34.450Z,31.57
2023-03-04T03:57:37.310Z,31.60
2023-03-04T04:00:41.533Z,30.67
2023-03-04T04:03:44.384Z,31.63
2023-03-04T04:06:47.256Z,30.57
2023-03-04T04:09:50.116Z,31.93
2023-03-04T04:12:52.972Z,31.60
2023-03-04T04:15:57.212Z,30.13
2023-03-04T04:19:00.094Z,28.27
2023-03-04T04:22:03.409Z,29.53
2023-03-04T04:25:08.855Z,30.47
2023-03-04T04:28:11.764Z,31.13
2023-03-04T04:31:16.124Z,31.20
2023-03-04T04:34:19.254Z,30.13
2023-03-04T04:37:22.152Z,29.87
2023-03-04T04:40:25.062Z,30.70
2023-03-04T04:43:27.934Z,30.33
2023-03-04T04:46:32.212Z,29.57
2023-03-04T04:49:35.243Z,30.37
2023-03-04T04:52:38.112Z,30.30
2023-03-04T04:55:40.979Z,30.30
2023-03-04T04:58:44.249Z,28.80
2023-03-04T05:01:48.670Z,31.27
2023-03-04T05:04:51.537Z,31.10
2023-03-04T05:07:54.402Z,28.87
2023-03-04T05:10:57.372Z,29.93
2023-03-04T05:14:00.287Z,28.60
2023-03-04T05:17:04.721Z,28.43
2023-03-04T05:20:09.510Z,29.60
2023-03-04T05:23:12.444Z,27.70
2023-03-04T05:26:17.801Z,30.40
2023-03-04T05:29:20.773Z,29.23
2023-03-04T05:32:24.994Z,28.53
2023-03-04T05:35:29.148Z,30.63
2023-03-04T05:38:32.542Z,27.70
2023-03-04T05:41:35.445Z,29.40
2023-03-04T05:44:38.309Z,28.00
2023-03-04T05:47:42.512Z,26.40
2023-03-04T05:50:45.382Z,29.03
2023-03-04T05:53:48.812Z,31.27
2023-03-04T05:56:51.665Z,27.43
2023-03-04T05:59:54.499Z,31.23
2023-03-04T06:02:58.784Z,36.57
2023-03-04T06:06:01.944Z,37.13
2023-03-04T06:09:05.298Z,32.87
2023-03-04T06:12:08.770Z,33.37
2023-03-04T06:15:12.920Z,29.10
2023-03-04T06:18:17.159Z,28.27
2023-03-04T06:21:20.558Z,30.27
2023-03-04T06:24:23.474Z,28.50
2023-03-04T06:27:26.680Z,29.77
2023-03-04T06:30:29.932Z,31.10
2023-03-04T06:33:34.233Z,27.23
2023-03-04T06:36:37.138Z,28.43
2023-03-04T06:39:40.092Z,28.70
2023-03-04T06:42:43.588Z,28.63
2023-03-04T06:45:46.504Z,34.80
2023-03-04T06:48:50.736Z,34.37
2023-03-04T06:51:53.878Z,29.20
2023-03-04T06:54:56.717Z,30.50
2023-03-04T06:57:59.612Z,29.90
2023-03-04T07:01:12.360Z,31.57
2023-03-04T07:04:16.616Z,31.47
2023-03-04T07:07:19.540Z,30.90
2023-03-04T07:10:22.450Z,29.40
2023-03-04T07:13:25.319Z,30.53
2023-03-04T07:16:28.533Z,31.93
2023-03-04T07:19:32.875Z,28.57
2023-03-04T07:22:35.787Z,29.87
2023-03-04T07:25:38.714Z,29.57
2023-03-04T07:28:42.976Z,31.47
2023-03-04T07:31:46.085Z,31.00
2023-03-04T07:34:50.352Z,30.27
2023-03-04T07:37:53.221Z,29.93
2023-03-04T07:40:57.499Z,31.33
2023-03-04T07:44:00.709Z,31.40
2023-03-04T07:47:03.609Z,31.30
2023-03-04T07:50:10.281Z,29.53
2023-03-04T07:53:13.177Z,32.70
2023-03-04T07:56:19.273Z,30.60
2023-03-04T07:59:22.182Z,30.83
2023-03-04T08:02:25.098Z,31.30
2023-03-04T08:05:29.366Z,29.63
2023-03-04T08:08:32.267Z,29.60
2023-03-04T08:11:37.007Z,30.73
2023-03-04T08:14:39.878Z,32.17
2023-03-04T08:17:42.739Z,31.73
2023-03-04T08:20:47.023Z,30.80
2023-03-04T08:23:51.357Z,32.20
2023-03-04T08:26:54.622Z,30.90
2023-03-04T08:29:57.559Z,32.93
2023-03-04T08:33:00.499Z,32.00
2023-03-04T08:36:05.100Z,33.63
2023-03-04T08:39:08.205Z,32.07
2023-03-04T08:42:11.245Z,26.23
2023-03-04T08:45:14.556Z,34.00
2023-03-04T08:48:17.894Z,31.53
2023-03-04T08:51:22.510Z,32.90
2023-03-04T08:54:25.339Z,31.97
2023-03-04T08:57:28.233Z,32.40
2023-03-04T09:00:31.399Z,31.47
2023-03-04T09:03:34.389Z,31.27
2023-03-04T09:06:38.611Z,32.10
2023-03-04T09:09:41.761Z,31.93
2023-03-04T09:12:44.699Z,29.87
2023-03-04T09:15:48.659Z,32.23
2023-03-04T09:18:51.596Z,31.13
2023-03-04T09:21:55.996Z,30.20
2023-03-04T09:24:58.918Z,32.30
2023-03-04T09:28:01.767Z,29.53
2023-03-04T09:31:12.774Z,28.40
2023-03-04T09:34:15.936Z,28.07
2023-03-04T09:37:20.147Z,29.60
2023-03-04T09:40:25.623Z,28.80
2023-03-04T09:43:32.215Z,27.00
2023-03-04T09:46:38.670Z,27.60
2023-03-04T09:49:46.047Z,26.77
2023-03-04T09:53:07.667Z,29.07
2023-03-04T09:56:12.536Z,26.63
2023-03-04T09:59:23.054Z,26.30
2023-03-04T10:02:36.553Z,25.30
2023-03-04T10:05:44.504Z,22.57
2023-03-04T10:08:55.106Z,21.97
2023-03-04T10:12:04.240Z,20.70
2023-03-04T10:15:19.288Z,18.97
2023-03-04T10:18:26.565Z,18.57
2023-03-04T10:21:35.233Z,19.13
2023-03-04T10:24:39.454Z,19.23
2023-03-04T10:27:43.538Z,20.53
2023-03-04T10:30:51.969Z,21.10
2023-03-04T10:33:54.980Z,20.63
2023-03-04T10:37:00.972Z,18.73
2023-03-04T10:40:05.839Z,19.93
2023-03-04T10:43:16.775Z,20.83
2023-03-04T10:46:24.939Z,21.37
2023-03-04T10:49:29.746Z,22.40
2023-03-04T10:52:33.879Z,20.93
2023-03-04T10:55:46.187Z,21.47
2023-03-04T10:58:49.074Z,22.80
2023-03-04T11:01:51.978Z,23.53
2023-03-04T11:05:07.130Z,22.07
2023-03-04T11:08:19.610Z,22.30
2023-03-04T11:11:34.661Z,21.73
2023-03-04T11:14:43.079Z,22.63
2023-03-04T11:17:50.888Z,22.47
2023-03-04T11:20:55.173Z,21.33
2023-03-04T11:24:01.223Z,21.43
2023-03-04T11:27:09.416Z,22.93
2023-03-04T11:30:26.628Z,21.63
2023-03-04T11:33:37.184Z,22.77
2023-03-04T11:36:54.846Z,20.73
2023-03-04T11:40:02.240Z,22.00
2023-03-04T11:43:10.692Z,21.57
2023-03-04T11:46:30.073Z,20.67
2023-03-04T11:49:50.361Z,20.53
2023-03-04T11:53:10.865Z,19.97
2023-03-04T11:56:27.967Z,22.90
2023-03-04T11:59:47.501Z,21.17
2023-03-04T12:03:05.331Z,20.57
2023-03-04T12:06:14.986Z,22.07
2023-03-04T12:09:37.833Z,19.30
2023-03-04T12:12:58.377Z,19.90
2023-03-04T12:16:12.230Z,20.03
2023-03-04T12:19:27.347Z,20.07
2023-03-04T12:22:39.305Z,19.10
2023-03-04T12:25:46.791Z,18.63
2023-03-04T12:28:56.958Z,18.57
2023-03-04T12:32:09.294Z,18.37
2023-03-04T12:35:31.622Z,15.57
2023-03-04T12:39:03.188Z,16.07
2023-03-04T12:42:19.570Z,16.00
2023-03-04T12:45:28.611Z,15.67
2023-03-04T12:48:36.730Z,16.50
2023-03-04T12:51:51.177Z,16.57
2023-03-04T12:54:58.253Z,17.23
2023-03-04T12:58:02.010Z,15.83
2023-03-04T13:01:12.743Z,16.83
2023-03-04T13:04:23.328Z,17.37
2023-03-04T13:07:39.892Z,16.50
2023-03-04T13:10:42.912Z,18.60
2023-03-04T13:14:03.485Z,19.27
2023-03-04T13:17:43.973Z,17.43
2023-03-04T13:20:48.430Z,17.60
2023-03-04T13:23:52.065Z,18.40
2023-03-04T13:26:55.013Z,17.20
2023-03-04T13:29:58.077Z,17.13
2023-03-04T13:33:39.371Z,16.17
2023-03-04T13:36:59.624Z,15.33
2023-03-04T13:40:36.738Z,18.60
2023-03-04T13:43:41.096Z,17.13
2023-03-04T13:46:44.875Z,15.53
2023-03-04T13:49:48.146Z,15.20
2023-03-04T13:52:52.869Z,16.23
2023-03-04T13:56:26.428Z,15.67
2023-03-04T13:59:32.209Z,16.17
2023-03-04T14:02:35.713Z,15.67
2023-03-04T14:05:38.629Z,17.10
2023-03-04T14:08:42.857Z,15.33
2023-03-04T14:11:45.910Z,15.07
2023-03-04T14:14:52.442Z,14.87
2023-03-04T14:17:57.172Z,15.70
2023-03-04T14:21:01.470Z,14.47
2023-03-04T14:24:08.159Z,14.10
2023-03-04T14:27:13.854Z,13.63
2023-03-04T14:30:39.108Z,13.23
2023-03-04T14:33:47.419Z,14.27
2023-03-04T14:36:50.464Z,13.70
2023-03-04T14:39:58.148Z,14.97
2023-03-04T14:43:05.366Z,13.40
2023-03-04T14:46:13.212Z,14.63
2023-03-04T14:49:17.200Z,13.43
2023-03-04T14:52:36.078Z,14.40
2023-03-04T14:55:40.363Z,13.13
2023-03-04T14:58:54.271Z,12.80
2023-03-04T15:02:18.324Z,12.03
2023-03-04T15:05:26.350Z,14.27
2023-03-04T15:08:33.790Z,13.80
2023-03-04T15:11:49.374Z,14.07
2023-03-04T15:14:53.969Z,12.50
2023-03-04T15:18:00.694Z,12.00
2023-03-04T15:21:05.193Z,13.40
2023-03-04T15:24:10.051Z,12.10
2023-03-04T15:27:16.997Z,12.60
2023-03-04T15:30:24.008Z,11.57
2023-03-04T15:33:26.935Z,14.00
2023-03-04T15:36:29.816Z,13.50
2023-03-04T15:39:33.331Z,13.63
2023-03-04T15:42:37.557Z,13.60
2023-03-04T15:45:41.349Z,12.53
2023-03-04T15:48:45.475Z,13.13
2023-03-04T15:51:50.270Z,13.93
2023-03-04T15:54:53.244Z,13.10
2023-03-04T15:58:00.145Z,13.63
2023-03-04T16:01:03.113Z,12.20
2023-03-04T16:04:06.275Z,13.77
2023-03-04T16:07:13.186Z,13.87
2023-03-04T16:10:21.404Z,12.70
2023-03-04T16:13:25.903Z,13.97
2023-03-04T16:16:28.787Z,13.50
2023-03-04T16:19:31.664Z,15.10
2023-03-04T16:22:34.656Z,14.83
2023-03-04T16:25:37.613Z,13.57
2023-03-04T16:28:41.899Z,13.87
2023-03-04T16:31:44.992Z,15.30
2023-03-04T16:34:48.037Z,14.50
2023-03-04T16:37:52.392Z,13.93
2023-03-04T16:40:56.747Z,14.67
2023-03-04T16:44:01.704Z,15.70
2023-03-04T16:47:05.459Z,13.23
2023-03-04T16:50:10.032Z,13.87
2023-03-04T16:53:24.655Z,14.10
2023-03-04T16:56:27.749Z,13.70
2023-03-04T16:59:32.303Z,13.87
2023-03-04T17:02:35.289Z,14.37
2023-03-04T17:05:38.751Z,14.77
2023-03-04T17:08:43.368Z,13.87
2023-03-04T17:11:46.688Z,15.03
2023-03-04T17:14:50.884Z,15.27
2023-03-04T17:17:54.118Z,14.67
2023-03-04T17:21:04.276Z,15.20
2023-03-04T17:24:11.064Z,17.70
2023-03-04T17:27:14.127Z,15.20
2023-03-04T17:30:18.849Z,16.50
2023-03-04T17:33:21.987Z,14.53
2023-03-04T17:36:24.837Z,16.37
2023-03-04T17:39:27.849Z,16.30
2023-03-04T17:42:31.988Z,16.47
2023-03-04T17:45:36.183Z,15.50
2023-03-04T17:48:39.172Z,15.83
2023-03-04T17:51:42.912Z,15.93
2023-03-04T17:54:46.689Z,15.53
2023-03-04T17:57:52.802Z,14.50
2023-03-04T18:01:02.123Z,16.60
2023-03-04T18:04:05.161Z,16.77
2023-03-04T18:07:08.032Z,15.70
2023-03-04T18:10:12.301Z,15.90
2023-03-04T18:13:15.168Z,14.87
2023-03-04T18:16:23.554Z,15.73
2023-03-04T18:19:26.488Z,16.23
2023-03-04T18:22:29.452Z,16.27
2023-03-04T18:25:32.317Z,16.40
2023-03-04T18:28:35.292Z,16.23
2023-03-04T18:31:39.531Z,16.30
2023-03-04T18:34:42.383Z,16.87
2023-03-04T18:37:45.365Z,18.40
2023-03-04T18:40:48.230Z,17.70
2023-03-04T18:43:52.747Z,17.30
2023-03-04T18:46:58.748Z,15.30
2023-03-04T18:50:01.639Z,16.87
2023-03-04T18:53:04.609Z,17.70
2023-03-04T18:56:12.969Z,17.83
2023-03-04T18:59:20.242Z,16.23
2023-03-04T19:02:30.127Z,17.00
2023-03-04T19:05:34.252Z,17.50
2023-03-04T19:08:37.268Z,16.87
2023-03-04T19:11:40.139Z,17.13
2023-03-04T19:14:43.014Z,18.17
2023-03-04T19:17:47.231Z,18.50
2023-03-04T19:20:50.109Z,18.60
2023-03-04T19:23:53.000Z,17.63
2023-03-04T19:26:55.872Z,16.77
2023-03-04T19:29:58.868Z,17.00
2023-03-04T19:33:03.200Z,17.17
2023-03-04T19:36:07.992Z,18.30
2023-03-04T19:39:11.473Z,16.97
2023-03-04T19:42:14.945Z,16.57
2023-03-04T19:45:17.993Z,17.60
2023-03-04T19:48:22.764Z,17.70
2023-03-04T19:51:27.275Z,18.07
2023-03-04T19:54:31.118Z,16.27
2023-03-04T19:57:34.630Z,19.13
2023-03-04T20:00:37.595Z,16.73
2023-03-04T20:03:41.819Z,18.20
2023-03-04T20:06:46.751Z,18.50
2023-03-04T20:09:49.603Z,18.67
2023-03-04T20:12:53.447Z,18.83
2023-03-04T20:15:56.364Z,17.67
2023-03-04T20:19:01.199Z,18.80
2023-03-04T20:22:05.636Z,19.47
2023-03-04T20:25:09.307Z,21.23
2023-03-04T20:28:12.168Z,20.60
2023-03-04T20:31:19.734Z,19.83
2023-03-04T20:34:24.841Z,20.83
2023-03-04T20:37:27.707Z,19.40
2023-03-04T20:40:30.603Z,19.83
2023-03-04T20:43:33.522Z,18.50
2023-03-04T20:46:41.004Z,17.27
2023-03-04T20:49:45.668Z,18.40
2023-03-04T20:52:48.554Z,18.63
2023-03-04T20:55:52.103Z,19.80
2023-03-04T20:58:58.596Z,20.13
2023-03-04T21:02:01.864Z,18.63
2023-03-04T21:05:07.018Z,19.60
2023-03-04T21:08:10.120Z,17.97
2023-03-04T21:11:14.224Z,19.10
2023-03-04T21:14:20.039Z,18.37
2023-03-04T21:17:24.446Z,17.73
2023-03-04T21:20:28.732Z,19.00
2023-03-04T21:23:31.609Z,20.27
2023-03-04T21:26:34.544Z,19.03
2023-03-04T21:29:37.596Z,19.73
2023-03-04T21:32:41.018Z,18.70
2023-03-04T21:35:47.510Z,21.67
2023-03-04T21:38:50.769Z,20.73
2023-03-04T21:41:54.982Z,23.20
2023-03-04T21:44:59.215Z,20.40
2023-03-04T21:48:02.116Z,22.17
2023-03-04T21:51:09.247Z,22.60
2023-03-04T21:54:13.353Z,20.63
2023-03-04T21:57:16.272Z,21.93
2023-03-04T22:00:20.081Z,20.90
2023-03-04T22:03:23.878Z,21.90
2023-03-04T22:06:28.648Z,22.20
2023-03-04T22:09:31.505Z,23.00
2023-03-04T22:12:34.376Z,20.77
2023-03-04T22:15:38.025Z,21.20
2023-03-04T22:18:42.335Z,21.63
2023-03-04T22:21:46.554Z,21.77
2023-03-04T22:24:49.439Z,24.60
2023-03-04T22:27:52.311Z,23.37
2023-03-04T22:30:56.544Z,22.63
2023-03-04T22:34:00.183Z,22.63
2023-03-04T22:37:04.469Z,21.33
2023-03-04T22:40:11.366Z,22.10
2023-03-04T22:43:14.883Z,22.60
2023-03-04T22:46:20.687Z,23.40
2023-03-04T22:49:23.548Z,21.60
2023-03-04T22:52:27.802Z,21.07
2023-03-04T22:55:30.819Z,21.43
2023-03-04T22:58:33.855Z,22.00
2023-03-04T23:01:36.831Z,21.57
2023-03-04T23:04:41.221Z,23.10
2023-03-04T23:07:46.908Z,24.93
2023-03-04T23:10:49.780Z,24.53
2023-03-04T23:13:52.733Z,22.80
2023-03-04T23:16:55.742Z,21.20
2023-03-04T23:19:58.686Z,21.73
2023-03-04T23:23:02.909Z,24.27
2023-03-04T23:26:06.251Z,23.60
2023-03-04T23:29:12.456Z,22.83
2023-03-04T23:32:15.386Z,21.93
2023-03-04T23:35:18.363Z,21.73
2023-03-04T23:38:22.613Z,22.20
2023-03-04T23:41:27.672Z,20.53
2023-03-04T23:44:30.532Z,24.43
2023-03-04T23:47:33.760Z,23.83
2023-03-04T23:50:38.124Z,26.37
2023-03-04T23:53:42.740Z,24.50
2023-03-04T23:56:45.606Z,23.97
2023-03-04T23:59:48.471Z,22.43
